sensor_id;sensor_type;location;lat;lon;timestamp;temperature;humidity
16511;DHT22;8368;48.772;8.754;2024-03-02T00:02:11;5.00;99.90
16511;DHT22;8368;48.772;8.754;2024-03-02T00:04:37;5.00;99.90
16511;DHT22;8368;48.772;8.754;2024-03-02T00:07:02;5.00;99.90
16511;DHT22;8368;48.772;8.754;2024-03-02T00:09:29;5.00;99.90
16511;DHT22;8368;48.772;8.754;2024-03-02T00:11:54;5.00;99.90
16511;DHT22;8368;48.772;8.754;2024-03-02T00:14:20;5.00;99.90
16511;DHT22;8368;48.772;8.754;2024-03-02T00:16:46;5.00;99.90
16511;DHT22;8368;48.772;8.754;2024-03-02T00:19:12;5.00;99.90
16511;DHT22;8368;48.772;8.754;2024-03-02T00:21:37;5.00;99.90
16511;DHT22;8368;48.772;8.754;2024-03-02T00:24:32;4.90;99.90
16511;DHT22;8368;48.772;8.754;2024-03-02T00:26:58;5.00;99.90
16511;DHT22;8368;48.772;8.754;2024-03-02T00:29:24;5.00;99.90
16511;DHT22;8368;48.772;8.754;2024-03-02T00:31:51;4.90;99.90
16511;DHT22;8368;48.772;8.754;2024-03-02T00:34:17;4.90;99.90
16511;DHT22;8368;48.772;8.754;2024-03-02T00:36:43;4.90;99.90
16511;DHT22;8368;48.772;8.754;2024-03-02T00:39:12;4.90;99.90
16511;DHT22;8368;48.772;8.754;2024-03-02T00:41:41;4.90;99.90
16511;DHT22;8368;48.772;8.754;2024-03-02T00:44:11;5.00;99.90
16511;DHT22;8368;48.772;8.754;2024-03-02T00:46:39;5.00;99.90
16511;DHT22;8368;48.772;8.754;2024-03-02T00:51:36;4.90;99.90
16511;DHT22;8368;48.772;8.754;2024-03-02T00:54:04;4.90;99.90
16511;DHT22;8368;48.772;8.754;2024-03-02T00:56:31;4.90;99.90
16511;DHT22;8368;48.772;8.754;2024-03-02T00:58:57;4.90;99.90
16511;DHT22;8368;48.772;8.754;2024-03-02T01:01:23;4.90;99.90
16511;DHT22;8368;48.772;8.754;2024-03-02T01:03:49;4.80;99.90
16511;DHT22;8368;48.772;8.754;2024-03-02T01:06:16;4.80;99.90
16511;DHT22;8368;48.772;8.754;2024-03-02T01:08:42;4.80;99.90
16511;DHT22;8368;48.772;8.754;2024-03-02T01:11:08;4.80;99.90
16511;DHT22;8368;48.772;8.754;2024-03-02T01:13:34;4.80;99.90
16511;DHT22;8368;48.772;8.754;2024-03-02T01:16:00;4.70;99.90
16511;DHT22;8368;48.772;8.754;2024-03-02T01:18:26;4.70;99.90
16511;DHT22;8368;48.772;8.754;2024-03-02T01:20:52;4.70;99.90
16511;DHT22;8368;48.772;8.754;2024-03-02T01:23:19;4.60;99.90
16511;DHT22;8368;48.772;8.754;2024-03-02T01:25:45;4.60;99.90
16511;DHT22;8368;48.772;8.754;2024-03-02T01:28:11;4.50;99.90
16511;DHT22;8368;48.772;8.754;2024-03-02T01:30:37;4.60;99.90
16511;DHT22;8368;48.772;8.754;2024-03-02T01:33:02;4.50;99.90
16511;DHT22;8368;48.772;8.754;2024-03-02T01:35:33;4.60;99.90
16511;DHT22;8368;48.772;8.754;2024-03-02T01:38:00;4.60;99.90
16511;DHT22;8368;48.772;8.754;2024-03-02T01:40:25;4.60;99.90
16511;DHT22;8368;48.772;8.754;2024-03-02T01:42:53;4.60;99.90
16511;DHT22;8368;48.772;8.754;2024-03-02T01:45:23;4.60;99.90
16511;DHT22;8368;48.772;8.754;2024-03-02T01:47:49;4.60;99.90
16511;DHT22;8368;48.772;8.754;2024-03-02T01:50:15;4.60;99.90
16511;DHT22;8368;48.772;8.754;2024-03-02T01:52:41;4.60;99.90
16511;DHT22;8368;48.772;8.754;2024-03-02T01:55:07;4.50;99.90
16511;DHT22;8368;48.772;8.754;2024-03-02T01:57:34;4.50;99.90
16511;DHT22;8368;48.772;8.754;2024-03-02T02:00:00;4.50;99.90
16511;DHT22;8368;48.772;8.754;2024-03-02T02:02:25;4.50;99.90
16511;DHT22;8368;48.772;8.754;2024-03-02T02:04:51;4.50;99.90
16511;DHT22;8368;48.772;8.754;2024-03-02T02:07:16;4.50;99.90
16511;DHT22;8368;48.772;8.754;2024-03-02T02:09:42;4.50;99.90
16511;DHT22;8368;48.772;8.754;2024-03-02T02:15:30;4.50;99.90
16511;DHT22;8368;48.772;8.754;2024-03-02T02:17:57;4.50;99.90
16511;DHT22;8368;48.772;8.754;2024-03-02T02:20:23;4.50;99.90
16511;DHT22;8368;48.772;8.754;2024-03-02T02:22:58;4.50;99.90
16511;DHT22;8368;48.772;8.754;2024-03-02T02:25:24;4.50;99.90
16511;DHT22;8368;48.772;8.754;2024-03-02T02:27:50;4.50;99.90
16511;DHT22;8368;48.772;8.754;2024-03-02T02:30:42;4.50;99.90
16511;DHT22;8368;48.772;8.754;2024-03-02T02:33:08;4.50;99.90
16511;DHT22;8368;48.772;8.754;2024-03-02T02:35:33;4.50;99.90
16511;DHT22;8368;48.772;8.754;2024-03-02T02:38:00;4.50;99.90
16511;DHT22;8368;48.772;8.754;2024-03-02T02:40:26;4.50;99.90
16511;DHT22;8368;48.772;8.754;2024-03-02T02:42:52;4.50;99.90
16511;DHT22;8368;48.772;8.754;2024-03-02T02:45:17;4.40;99.90
16511;DHT22;8368;48.772;8.754;2024-03-02T02:47:44;4.40;99.90
16511;DHT22;8368;48.772;8.754;2024-03-02T02:50:11;4.40;99.90
16511;DHT22;8368;48.772;8.754;2024-03-02T02:52:37;4.40;99.90
16511;DHT22;8368;48.772;8.754;2024-03-02T02:55:05;4.40;99.90
16511;DHT22;8368;48.772;8.754;2024-03-02T02:57:32;4.40;99.90
16511;DHT22;8368;48.772;8.754;2024-03-02T03:00:05;4.40;99.90
16511;DHT22;8368;48.772;8.754;2024-03-02T03:02:38;4.40;99.90
16511;DHT22;8368;48.772;8.754;2024-03-02T03:05:10;4.40;99.90
16511;DHT22;8368;48.772;8.754;2024-03-02T03:07:36;4.40;99.90
16511;DHT22;8368;48.772;8.754;2024-03-02T03:10:03;4.40;99.90
16511;DHT22;8368;48.772;8.754;2024-03-02T03:12:32;4.40;99.90
16511;DHT22;8368;48.772;8.754;2024-03-02T03:14:58;4.40;99.90
16511;DHT22;8368;48.772;8.754;2024-03-02T03:17:24;4.40;99.90
16511;DHT22;8368;48.772;8.754;2024-03-02T03:19:50;4.30;99.90
16511;DHT22;8368;48.772;8.754;2024-03-02T03:22:16;4.30;99.90
16511;DHT22;8368;48.772;8.754;2024-03-02T03:24:42;4.30;99.90
16511;DHT22;8368;48.772;8.754;2024-03-02T03:27:07;4.30;99.90
16511;DHT22;8368;48.772;8.754;2024-03-02T03:29:33;4.30;99.90
16511;DHT22;8368;48.772;8.754;2024-03-02T03:31:58;4.30;99.90
16511;DHT22;8368;48.772;8.754;2024-03-02T03:34:24;4.20;99.90
16511;DHT22;8368;48.772;8.754;2024-03-02T03:36:49;4.20;99.90
16511;DHT22;8368;48.772;8.754;2024-03-02T03:39:15;4.20;99.90
16511;DHT22;8368;48.772;8.754;2024-03-02T03:41:41;4.20;99.90
16511;DHT22;8368;48.772;8.754;2024-03-02T03:44:06;4.20;99.90
16511;DHT22;8368;48.772;8.754;2024-03-02T03:46:32;4.20;99.90
16511;DHT22;8368;48.772;8.754;2024-03-02T03:48:57;4.20;99.90
16511;DHT22;8368;48.772;8.754;2024-03-02T03:51:23;4.20;99.90
16511;DHT22;8368;48.772;8.754;2024-03-02T03:53:48;4.10;99.90
16511;DHT22;8368;48.772;8.754;2024-03-02T03:56:14;4.10;99.90
16511;DHT22;8368;48.772;8.754;2024-03-02T03:58:39;4.10;99.90
16511;DHT22;8368;48.772;8.754;2024-03-02T04:01:05;4.10;99.90
16511;DHT22;8368;48.772;8.754;2024-03-02T04:03:30;4.00;99.90
16511;DHT22;8368;48.772;8.754;2024-03-02T04:05:56;4.00;99.90
16511;DHT22;8368;48.772;8.754;2024-03-02T04:08:22;4.00;99.90
16511;DHT22;8368;48.772;8.754;2024-03-02T04:10:47;4.00;99.90
16511;DHT22;8368;48.772;8.754;2024-03-02T04:13:13;3.90;99.90
16511;DHT22;8368;48.772;8.754;2024-03-02T04:15:39;3.90;99.90
16511;DHT22;8368;48.772;8.754;2024-03-02T04:18:06;3.90;99.90
16511;DHT22;8368;48.772;8.754;2024-03-02T04:20:31;3.80;99.90
16511;DHT22;8368;48.772;8.754;2024-03-02T04:22:57;3.80;99.90
16511;DHT22;8368;48.772;8.754;2024-03-02T04:25:22;3.80;99.90
16511;DHT22;8368;48.772;8.754;2024-03-02T04:27:48;3.80;99.90
16511;DHT22;8368;48.772;8.754;2024-03-02T04:30:14;3.80;99.90
16511;DHT22;8368;48.772;8.754;2024-03-02T04:32:39;3.80;99.90
16511;DHT22;8368;48.772;8.754;2024-03-02T04:35:05;3.90;99.90
16511;DHT22;8368;48.772;8.754;2024-03-02T04:37:34;3.90;99.90
16511;DHT22;8368;48.772;8.754;2024-03-02T04:40:00;3.90;99.90
16511;DHT22;8368;48.772;8.754;2024-03-02T04:42:25;3.90;99.90
16511;DHT22;8368;48.772;8.754;2024-03-02T04:44:51;3.90;99.90
16511;DHT22;8368;48.772;8.754;2024-03-02T04:47:16;3.90;99.90
16511;DHT22;8368;48.772;8.754;2024-03-02T04:49:42;3.90;99.90
16511;DHT22;8368;48.772;8.754;2024-03-02T04:52:07;3.90;99.90
16511;DHT22;8368;48.772;8.754;2024-03-02T04:54:33;3.90;99.90
16511;DHT22;8368;48.772;8.754;2024-03-02T04:57:18;3.90;99.90
16511;DHT22;8368;48.772;8.754;2024-03-02T04:59:44;3.80;99.90
16511;DHT22;8368;48.772;8.754;2024-03-02T05:02:09;3.80;99.90
16511;DHT22;8368;48.772;8.754;2024-03-02T05:04:35;3.80;99.90
16511;DHT22;8368;48.772;8.754;2024-03-02T05:07:00;3.80;99.90
16511;DHT22;8368;48.772;8.754;2024-03-02T05:09:26;3.80;99.90
16511;DHT22;8368;48.772;8.754;2024-03-02T05:11:51;3.80;99.90
16511;DHT22;8368;48.772;8.754;2024-03-02T05:14:48;3.80;99.90
16511;DHT22;8368;48.772;8.754;2024-03-02T05:17:13;3.80;99.90
16511;DHT22;8368;48.772;8.754;2024-03-02T05:19:39;3.80;99.90
16511;DHT22;8368;48.772;8.754;2024-03-02T05:22:04;3.80;99.90
16511;DHT22;8368;48.772;8.754;2024-03-02T05:24:31;3.80;99.90
16511;DHT22;8368;48.772;8.754;2024-03-02T05:26:56;3.80;99.90
16511;DHT22;8368;48.772;8.754;2024-03-02T05:29:22;3.80;99.90
16511;DHT22;8368;48.772;8.754;2024-03-02T05:31:48;3.80;99.90
16511;DHT22;8368;48.772;8.754;2024-03-02T05:34:13;3.70;99.90
16511;DHT22;8368;48.772;8.754;2024-03-02T05:36:39;3.70;99.90
16511;DHT22;8368;48.772;8.754;2024-03-02T05:39:05;3.70;99.90
16511;DHT22;8368;48.772;8.754;2024-03-02T05:41:34;3.70;99.90
16511;DHT22;8368;48.772;8.754;2024-03-02T05:44:00;3.70;99.90
16511;DHT22;8368;48.772;8.754;2024-03-02T05:46:25;3.60;99.90
16511;DHT22;8368;48.772;8.754;2024-03-02T05:48:51;3.60;99.90
16511;DHT22;8368;48.772;8.754;2024-03-02T05:51:16;3.60;99.90
16511;DHT22;8368;48.772;8.754;2024-03-02T05:53:42;3.60;99.90
16511;DHT22;8368;48.772;8.754;2024-03-02T05:56:08;3.60;99.90
16511;DHT22;8368;48.772;8.754;2024-03-02T05:58:34;3.60;99.90
16511;DHT22;8368;48.772;8.754;2024-03-02T06:00:59;3.60;99.90
16511;DHT22;8368;48.772;8.754;2024-03-02T06:03:25;3.50;99.90
16511;DHT22;8368;48.772;8.754;2024-03-02T06:05:51;3.50;99.90
16511;DHT22;8368;48.772;8.754;2024-03-02T06:08:17;3.50;99.90
16511;DHT22;8368;48.772;8.754;2024-03-02T06:10:43;3.40;99.90
16511;DHT22;8368;48.772;8.754;2024-03-02T06:13:08;3.40;99.90
16511;DHT22;8368;48.772;8.754;2024-03-02T06:15:34;3.40;99.90
16511;DHT22;8368;48.772;8.754;2024-03-02T06:18:01;3.40;99.90
16511;DHT22;8368;48.772;8.754;2024-03-02T06:20:26;3.40;99.90
16511;DHT22;8368;48.772;8.754;2024-03-02T06:22:52;3.30;99.90
16511;DHT22;8368;48.772;8.754;2024-03-02T06:25:17;3.30;99.90
16511;DHT22;8368;48.772;8.754;2024-03-02T06:27:43;3.30;99.90
16511;DHT22;8368;48.772;8.754;2024-03-02T06:30:09;3.30;99.90
16511;DHT22;8368;48.772;8.754;2024-03-02T06:32:35;3.30;99.90
16511;DHT22;8368;48.772;8.754;2024-03-02T06:35:00;3.30;99.90
16511;DHT22;8368;48.772;8.754;2024-03-02T06:37:26;3.30;99.90
16511;DHT22;8368;48.772;8.754;2024-03-02T06:39:51;3.30;99.90
16511;DHT22;8368;48.772;8.754;2024-03-02T06:42:17;3.30;99.90
16511;DHT22;8368;48.772;8.754;2024-03-02T06:44:42;3.30;99.90
16511;DHT22;8368;48.772;8.754;2024-03-02T06:47:08;3.40;99.90
16511;DHT22;8368;48.772;8.754;2024-03-02T06:49:33;3.40;99.90
16511;DHT22;8368;48.772;8.754;2024-03-02T06:52:00;3.50;99.90
16511;DHT22;8368;48.772;8.754;2024-03-02T06:54:26;3.50;99.90
16511;DHT22;8368;48.772;8.754;2024-03-02T06:56:51;3.60;99.90
16511;DHT22;8368;48.772;8.754;2024-03-02T06:59:17;3.60;99.90
16511;DHT22;8368;48.772;8.754;2024-03-02T07:01:42;3.60;99.90
16511;DHT22;8368;48.772;8.754;2024-03-02T07:04:08;3.70;99.90
16511;DHT22;8368;48.772;8.754;2024-03-02T07:06:34;3.70;99.90
16511;DHT22;8368;48.772;8.754;2024-03-02T07:08:59;3.70;99.90
16511;DHT22;8368;48.772;8.754;2024-03-02T07:11:25;3.70;99.90
16511;DHT22;8368;48.772;8.754;2024-03-02T07:13:50;3.60;99.90
16511;DHT22;8368;48.772;8.754;2024-03-02T07:16:16;3.70;99.90
16511;DHT22;8368;48.772;8.754;2024-03-02T07:19:07;3.70;99.90
16511;DHT22;8368;48.772;8.754;2024-03-02T07:21:33;3.70;99.90
16511;DHT22;8368;48.772;8.754;2024-03-02T07:23:58;3.70;99.90
16511;DHT22;8368;48.772;8.754;2024-03-02T07:26:25;3.70;99.90
16511;DHT22;8368;48.772;8.754;2024-03-02T07:28:51;3.70;99.90
16511;DHT22;8368;48.772;8.754;2024-03-02T07:31:17;3.80;99.90
16511;DHT22;8368;48.772;8.754;2024-03-02T07:33:45;3.80;99.90
16511;DHT22;8368;48.772;8.754;2024-03-02T07:36:12;3.80;99.90
16511;DHT22;8368;48.772;8.754;2024-03-02T07:38:37;3.80;99.90
16511;DHT22;8368;48.772;8.754;2024-03-02T07:41:03;3.80;99.90
16511;DHT22;8368;48.772;8.754;2024-03-02T07:43:30;3.90;99.90
16511;DHT22;8368;48.772;8.754;2024-03-02T07:45:57;4.00;99.90
16511;DHT22;8368;48.772;8.754;2024-03-02T07:48:22;4.00;99.90
16511;DHT22;8368;48.772;8.754;2024-03-02T07:50:48;4.10;99.90
16511;DHT22;8368;48.772;8.754;2024-03-02T07:53:13;4.20;99.90
16511;DHT22;8368;48.772;8.754;2024-03-02T07:55:40;4.20;99.90
16511;DHT22;8368;48.772;8.754;2024-03-02T07:58:06;4.30;99.90
16511;DHT22;8368;48.772;8.754;2024-03-02T08:00:31;4.40;99.90
16511;DHT22;8368;48.772;8.754;2024-03-02T08:02:57;4.50;99.90
16511;DHT22;8368;48.772;8.754;2024-03-02T08:05:23;4.60;99.90
16511;DHT22;8368;48.772;8.754;2024-03-02T08:07:48;4.70;99.90
16511;DHT22;8368;48.772;8.754;2024-03-02T08:10:18;4.80;99.90
16511;DHT22;8368;48.772;8.754;2024-03-02T08:12:43;4.90;99.90
16511;DHT22;8368;48.772;8.754;2024-03-02T08:15:09;5.00;99.90
16511;DHT22;8368;48.772;8.754;2024-03-02T08:17:34;5.10;99.90
16511;DHT22;8368;48.772;8.754;2024-03-02T08:20:00;5.20;99.90
16511;DHT22;8368;48.772;8.754;2024-03-02T08:22:25;5.30;99.90
16511;DHT22;8368;48.772;8.754;2024-03-02T08:24:51;5.40;99.90
16511;DHT22;8368;48.772;8.754;2024-03-02T08:27:17;5.50;99.90
16511;DHT22;8368;48.772;8.754;2024-03-02T08:29:43;5.60;99.90
16511;DHT22;8368;48.772;8.754;2024-03-02T08:32:08;5.70;99.90
16511;DHT22;8368;48.772;8.754;2024-03-02T08:34:34;5.80;99.90
16511;DHT22;8368;48.772;8.754;2024-03-02T08:37:01;5.90;99.90
16511;DHT22;8368;48.772;8.754;2024-03-02T08:39:27;5.90;99.90
16511;DHT22;8368;48.772;8.754;2024-03-02T08:41:52;6.00;99.90
16511;DHT22;8368;48.772;8.754;2024-03-02T08:44:18;6.10;99.90
16511;DHT22;8368;48.772;8.754;2024-03-02T08:46:44;6.20;99.90
16511;DHT22;8368;48.772;8.754;2024-03-02T08:49:10;6.30;99.90
16511;DHT22;8368;48.772;8.754;2024-03-02T08:51:35;6.30;99.90
16511;DHT22;8368;48.772;8.754;2024-03-02T08:54:01;6.40;99.90
16511;DHT22;8368;48.772;8.754;2024-03-02T08:56:27;6.40;99.90
16511;DHT22;8368;48.772;8.754;2024-03-02T08:58:52;6.50;99.90
16511;DHT22;8368;48.772;8.754;2024-03-02T09:01:18;6.50;99.90
16511;DHT22;8368;48.772;8.754;2024-03-02T09:03:45;6.60;99.90
16511;DHT22;8368;48.772;8.754;2024-03-02T09:06:11;6.70;99.90
16511;DHT22;8368;48.772;8.754;2024-03-02T09:08:37;6.70;99.90
16511;DHT22;8368;48.772;8.754;2024-03-02T09:11:04;6.80;99.90
16511;DHT22;8368;48.772;8.754;2024-03-02T09:13:29;6.80;99.90
16511;DHT22;8368;48.772;8.754;2024-03-02T09:15:55;6.90;99.90
16511;DHT22;8368;48.772;8.754;2024-03-02T09:18:21;7.00;99.90
16511;DHT22;8368;48.772;8.754;2024-03-02T09:20:46;7.00;99.90
16511;DHT22;8368;48.772;8.754;2024-03-02T09:23:12;7.10;99.90
16511;DHT22;8368;48.772;8.754;2024-03-02T09:25:37;7.20;99.90
16511;DHT22;8368;48.772;8.754;2024-03-02T09:28:03;7.30;99.90
16511;DHT22;8368;48.772;8.754;2024-03-02T09:30:29;7.30;99.90
16511;DHT22;8368;48.772;8.754;2024-03-02T09:32:54;7.40;99.90
16511;DHT22;8368;48.772;8.754;2024-03-02T09:35:20;7.40;99.90
16511;DHT22;8368;48.772;8.754;2024-03-02T09:37:45;7.60;99.90
16511;DHT22;8368;48.772;8.754;2024-03-02T09:40:12;7.70;99.90
16511;DHT22;8368;48.772;8.754;2024-03-02T09:42:39;7.80;99.90
16511;DHT22;8368;48.772;8.754;2024-03-02T09:45:05;7.80;99.90
16511;DHT22;8368;48.772;8.754;2024-03-02T09:47:31;7.90;99.90
16511;DHT22;8368;48.772;8.754;2024-03-02T09:49:57;8.00;99.90
16511;DHT22;8368;48.772;8.754;2024-03-02T09:52:23;8.20;99.90
16511;DHT22;8368;48.772;8.754;2024-03-02T09:54:49;8.20;99.90
16511;DHT22;8368;48.772;8.754;2024-03-02T09:57:15;8.30;99.90
16511;DHT22;8368;48.772;8.754;2024-03-02T09:59:40;8.40;99.90
16511;DHT22;8368;48.772;8.754;2024-03-02T10:02:06;8.50;99.90
16511;DHT22;8368;48.772;8.754;2024-03-02T10:04:33;8.60;99.90
16511;DHT22;8368;48.772;8.754;2024-03-02T10:07:16;8.70;99.90
16511;DHT22;8368;48.772;8.754;2024-03-02T10:09:46;8.80;99.90
16511;DHT22;8368;48.772;8.754;2024-03-02T10:12:14;8.90;99.90
16511;DHT22;8368;48.772;8.754;2024-03-02T10:14:40;8.90;99.90
16511;DHT22;8368;48.772;8.754;2024-03-02T10:17:08;9.10;99.90
16511;DHT22;8368;48.772;8.754;2024-03-02T10:19:34;9.20;99.90
16511;DHT22;8368;48.772;8.754;2024-03-02T10:22:05;9.30;99.90
16511;DHT22;8368;48.772;8.754;2024-03-02T10:24:42;9.50;99.90
16511;DHT22;8368;48.772;8.754;2024-03-02T10:35:44;9.80;99.90
16511;DHT22;8368;48.772;8.754;2024-03-02T10:38:11;9.90;99.90
16511;DHT22;8368;48.772;8.754;2024-03-02T10:40:36;9.90;99.90
16511;DHT22;8368;48.772;8.754;2024-03-02T10:43:02;10.00;99.90
16511;DHT22;8368;48.772;8.754;2024-03-02T10:45:29;10.10;99.90
16511;DHT22;8368;48.772;8.754;2024-03-02T10:47:55;10.20;99.90
16511;DHT22;8368;48.772;8.754;2024-03-02T10:50:21;10.20;99.90
16511;DHT22;8368;48.772;8.754;2024-03-02T10:52:46;10.30;99.90
16511;DHT22;8368;48.772;8.754;2024-03-02T10:55:12;10.40;99.90
16511;DHT22;8368;48.772;8.754;2024-03-02T10:57:50;10.50;99.90
16511;DHT22;8368;48.772;8.754;2024-03-02T11:00:17;10.60;99.90
16511;DHT22;8368;48.772;8.754;2024-03-02T11:02:52;10.70;99.90
16511;DHT22;8368;48.772;8.754;2024-03-02T11:05:27;10.80;99.90
16511;DHT22;8368;48.772;8.754;2024-03-02T11:08:06;10.80;99.90
16511;DHT22;8368;48.772;8.754;2024-03-02T11:10:35;10.90;99.90
16511;DHT22;8368;48.772;8.754;2024-03-02T11:13:04;11.00;99.90
16511;DHT22;8368;48.772;8.754;2024-03-02T11:15:31;11.00;99.90
16511;DHT22;8368;48.772;8.754;2024-03-02T11:17:59;11.10;99.90
16511;DHT22;8368;48.772;8.754;2024-03-02T11:20:24;11.20;99.90
16511;DHT22;8368;48.772;8.754;2024-03-02T11:22:51;11.20;99.90
16511;DHT22;8368;48.772;8.754;2024-03-02T11:25:24;11.30;99.90
16511;DHT22;8368;48.772;8.754;2024-03-02T11:33:07;11.40;99.90
16511;DHT22;8368;48.772;8.754;2024-03-02T11:35:36;11.50;99.90
16511;DHT22;8368;48.772;8.754;2024-03-02T11:38:02;11.40;99.90
16511;DHT22;8368;48.772;8.754;2024-03-02T11:40:29;11.40;99.90
16511;DHT22;8368;48.772;8.754;2024-03-02T11:42:55;11.40;99.90
16511;DHT22;8368;48.772;8.754;2024-03-02T11:45:27;11.50;99.90
16511;DHT22;8368;48.772;8.754;2024-03-02T11:47:57;11.60;99.90
16511;DHT22;8368;48.772;8.754;2024-03-02T11:50:30;11.70;99.90
16511;DHT22;8368;48.772;8.754;2024-03-02T11:52:56;11.80;99.90
16511;DHT22;8368;48.772;8.754;2024-03-02T11:55:23;11.80;99.90
16511;DHT22;8368;48.772;8.754;2024-03-02T11:57:52;11.80;99.90
16511;DHT22;8368;48.772;8.754;2024-03-02T12:00:18;11.80;99.90
16511;DHT22;8368;48.772;8.754;2024-03-02T12:02:45;12.00;99.90
16511;DHT22;8368;48.772;8.754;2024-03-02T12:05:15;12.00;99.90
16511;DHT22;8368;48.772;8.754;2024-03-02T12:07:42;12.00;99.90
16511;DHT22;8368;48.772;8.754;2024-03-02T12:10:08;12.10;99.90
16511;DHT22;8368;48.772;8.754;2024-03-02T12:12:34;12.10;99.90
16511;DHT22;8368;48.772;8.754;2024-03-02T12:15:00;12.30;99.90
16511;DHT22;8368;48.772;8.754;2024-03-02T12:17:26;12.40;99.90
16511;DHT22;8368;48.772;8.754;2024-03-02T12:19:51;12.40;99.90
16511;DHT22;8368;48.772;8.754;2024-03-02T12:22:18;12.40;99.90
16511;DHT22;8368;48.772;8.754;2024-03-02T12:24:44;12.60;99.90
16511;DHT22;8368;48.772;8.754;2024-03-02T12:27:14;12.60;99.90
16511;DHT22;8368;48.772;8.754;2024-03-02T12:29:40;12.70;99.90
16511;DHT22;8368;48.772;8.754;2024-03-02T12:32:06;12.80;99.90
16511;DHT22;8368;48.772;8.754;2024-03-02T12:34:32;12.80;99.90
16511;DHT22;8368;48.772;8.754;2024-03-02T12:36:58;12.80;99.90
16511;DHT22;8368;48.772;8.754;2024-03-02T12:39:24;12.80;99.90
16511;DHT22;8368;48.772;8.754;2024-03-02T12:41:50;12.90;99.90
16511;DHT22;8368;48.772;8.754;2024-03-02T12:44:19;12.90;99.90
16511;DHT22;8368;48.772;8.754;2024-03-02T12:46:45;13.00;99.90
16511;DHT22;8368;48.772;8.754;2024-03-02T12:49:12;13.00;99.90
16511;DHT22;8368;48.772;8.754;2024-03-02T12:51:40;12.90;99.90
16511;DHT22;8368;48.772;8.754;2024-03-02T12:54:07;12.80;99.90
16511;DHT22;8368;48.772;8.754;2024-03-02T12:56:33;12.90;99.90
16511;DHT22;8368;48.772;8.754;2024-03-02T12:58:59;12.90;99.90
16511;DHT22;8368;48.772;8.754;2024-03-02T13:01:25;13.00;99.90
16511;DHT22;8368;48.772;8.754;2024-03-02T13:03:52;13.00;99.90
16511;DHT22;8368;48.772;8.754;2024-03-02T13:06:18;13.00;99.90
16511;DHT22;8368;48.772;8.754;2024-03-02T13:08:45;13.10;99.90
16511;DHT22;8368;48.772;8.754;2024-03-02T13:11:11;12.90;99.90
16511;DHT22;8368;48.772;8.754;2024-03-02T13:13:41;12.80;99.90
16511;DHT22;8368;48.772;8.754;2024-03-02T13:16:10;12.70;99.90
16511;DHT22;8368;48.772;8.754;2024-03-02T13:18:36;12.70;99.90
16511;DHT22;8368;48.772;8.754;2024-03-02T13:21:01;12.70;99.90
16511;DHT22;8368;48.772;8.754;2024-03-02T13:23:27;12.70;99.90
16511;DHT22;8368;48.772;8.754;2024-03-02T13:25:56;12.90;99.90
16511;DHT22;8368;48.772;8.754;2024-03-02T13:28:22;13.40;99.90
16511;DHT22;8368;48.772;8.754;2024-03-02T13:30:47;13.80;99.90
16511;DHT22;8368;48.772;8.754;2024-03-02T13:33:12;14.00;99.90
16511;DHT22;8368;48.772;8.754;2024-03-02T13:35:38;14.50;99.90
16511;DHT22;8368;48.772;8.754;2024-03-02T13:38:04;15.20;99.90
16511;DHT22;8368;48.772;8.754;2024-03-02T13:40:29;15.70;99.90
16511;DHT22;8368;48.772;8.754;2024-03-02T13:43:00;16.40;99.90
16511;DHT22;8368;48.772;8.754;2024-03-02T13:45:26;16.90;99.90
16511;DHT22;8368;48.772;8.754;2024-03-02T13:47:51;17.00;99.90
16511;DHT22;8368;48.772;8.754;2024-03-02T13:50:17;16.60;99.90
16511;DHT22;8368;48.772;8.754;2024-03-02T13:52:42;16.40;99.90
16511;DHT22;8368;48.772;8.754;2024-03-02T13:55:08;16.20;99.90
16511;DHT22;8368;48.772;8.754;2024-03-02T13:57:33;15.80;99.90
16511;DHT22;8368;48.772;8.754;2024-03-02T13:59:59;15.80;99.90
16511;DHT22;8368;48.772;8.754;2024-03-02T14:02:24;15.70;99.90
16511;DHT22;8368;48.772;8.754;2024-03-02T14:04:51;15.60;99.90
16511;DHT22;8368;48.772;8.754;2024-03-02T14:07:16;15.80;99.90
16511;DHT22;8368;48.772;8.754;2024-03-02T14:09:42;15.70;99.90
16511;DHT22;8368;48.772;8.754;2024-03-02T14:12:08;15.40;99.90
16511;DHT22;8368;48.772;8.754;2024-03-02T14:14:34;15.00;99.90
16511;DHT22;8368;48.772;8.754;2024-03-02T14:17:00;14.60;99.90
16511;DHT22;8368;48.772;8.754;2024-03-02T14:19:29;14.30;99.90
16511;DHT22;8368;48.772;8.754;2024-03-02T14:21:54;13.90;99.90
16511;DHT22;8368;48.772;8.754;2024-03-02T14:24:20;13.70;99.90
16511;DHT22;8368;48.772;8.754;2024-03-02T14:26:49;13.40;99.90
16511;DHT22;8368;48.772;8.754;2024-03-02T14:29:14;13.10;99.90
16511;DHT22;8368;48.772;8.754;2024-03-02T14:31:40;12.80;99.90
16511;DHT22;8368;48.772;8.754;2024-03-02T14:34:05;12.60;99.90
16511;DHT22;8368;48.772;8.754;2024-03-02T14:36:31;12.50;99.90
16511;DHT22;8368;48.772;8.754;2024-03-02T14:38:56;12.50;99.90
16511;DHT22;8368;48.772;8.754;2024-03-02T14:41:22;12.30;99.90
16511;DHT22;8368;48.772;8.754;2024-03-02T14:43:50;12.20;99.90
16511;DHT22;8368;48.772;8.754;2024-03-02T14:46:15;12.00;99.90
16511;DHT22;8368;48.772;8.754;2024-03-02T14:48:43;12.00;99.90
16511;DHT22;8368;48.772;8.754;2024-03-02T14:51:09;11.80;99.90
16511;DHT22;8368;48.772;8.754;2024-03-02T14:53:35;11.70;99.90
16511;DHT22;8368;48.772;8.754;2024-03-02T14:56:03;11.60;99.90
16511;DHT22;8368;48.772;8.754;2024-03-02T14:58:29;11.50;99.90
16511;DHT22;8368;48.772;8.754;2024-03-02T15:00:55;11.50;99.90
16511;DHT22;8368;48.772;8.754;2024-03-02T15:03:20;11.40;99.90
16511;DHT22;8368;48.772;8.754;2024-03-02T15:05:46;11.30;99.90
16511;DHT22;8368;48.772;8.754;2024-03-02T15:08:12;11.20;99.90
16511;DHT22;8368;48.772;8.754;2024-03-02T15:10:37;11.10;99.90
16511;DHT22;8368;48.772;8.754;2024-03-02T15:13:03;11.00;99.90
16511;DHT22;8368;48.772;8.754;2024-03-02T15:15:29;10.90;99.90
16511;DHT22;8368;48.772;8.754;2024-03-02T15:17:54;10.90;99.90
16511;DHT22;8368;48.772;8.754;2024-03-02T15:20:20;10.80;99.90
16511;DHT22;8368;48.772;8.754;2024-03-02T15:22:47;10.80;99.90
16511;DHT22;8368;48.772;8.754;2024-03-02T15:25:12;10.80;99.90
16511;DHT22;8368;48.772;8.754;2024-03-02T15:27:38;10.90;99.90
16511;DHT22;8368;48.772;8.754;2024-03-02T15:30:04;10.90;99.90
16511;DHT22;8368;48.772;8.754;2024-03-02T15:32:30;11.00;99.90
16511;DHT22;8368;48.772;8.754;2024-03-02T15:34:56;11.00;99.90
16511;DHT22;8368;48.772;8.754;2024-03-02T15:37:22;11.00;99.90
16511;DHT22;8368;48.772;8.754;2024-03-02T15:39:48;11.00;99.90
16511;DHT22;8368;48.772;8.754;2024-03-02T15:42:13;11.00;99.90
16511;DHT22;8368;48.772;8.754;2024-03-02T15:44:39;11.00;99.90
16511;DHT22;8368;48.772;8.754;2024-03-02T15:47:05;11.00;99.90
16511;DHT22;8368;48.772;8.754;2024-03-02T15:49:30;11.00;99.90
16511;DHT22;8368;48.772;8.754;2024-03-02T15:51:57;11.00;99.90
16511;DHT22;8368;48.772;8.754;2024-03-02T15:54:25;10.90;99.90
16511;DHT22;8368;48.772;8.754;2024-03-02T15:56:51;10.90;99.90
16511;DHT22;8368;48.772;8.754;2024-03-02T15:59:17;10.90;99.90
16511;DHT22;8368;48.772;8.754;2024-03-02T16:01:42;10.80;99.90
16511;DHT22;8368;48.772;8.754;2024-03-02T16:04:08;10.80;99.90
16511;DHT22;8368;48.772;8.754;2024-03-02T16:06:34;10.70;99.90
16511;DHT22;8368;48.772;8.754;2024-03-02T16:08:59;10.80;99.90
16511;DHT22;8368;48.772;8.754;2024-03-02T16:11:25;10.70;99.90
16511;DHT22;8368;48.772;8.754;2024-03-02T16:13:51;10.60;99.90